createdAt,value
2022-08-12T00:00:35.458Z,16.17
2022-08-12T00:05:21.453Z,16.11
2022-08-12T00:10:02.106Z,16.05
2022-08-12T00:14:22.101Z,16.01
2022-08-12T00:18:42.153Z,15.94
2022-08-12T00:23:02.569Z,15.89
2022-08-12T00:27:27.337Z,15.80
2022-08-12T00:32:03.103Z,15.74
2022-08-12T00:36:35.356Z,15.69
2022-08-12T00:40:57.630Z,15.61
2022-08-12T00:44:59.159Z,15.48
2022-08-12T00:49:01.979Z,15.35
2022-08-12T00:53:03.625Z,15.33
2022-08-12T00:57:28.932Z,15.29
2022-08-12T01:02:10.801Z,15.26
2022-08-12T01:06:14.370Z,15.22
2022-08-12T01:10:34.070Z,15.16
2022-08-12T01:14:37.219Z,15.11
2022-08-12T01:18:40.145Z,15.03
2022-08-12T01:22:54.139Z,14.94
2022-08-12T01:26:56.666Z,14.89
2022-08-12T01:31:02.340Z,14.84
2022-08-12T01:35:12.882Z,14.79
2022-08-12T01:39:16.270Z,14.75
2022-08-12T01:43:21.598Z,14.70
2022-08-12T01:47:56.427Z,14.62
2022-08-12T01:52:21.656Z,14.53
2022-08-12T01:56:26.093Z,14.46
2022-08-12T02:00:46.940Z,14.41
2022-08-12T02:05:53.905Z,14.37
2022-08-12T02:10:50.672Z,14.36
2022-08-12T02:15:13.153Z,14.25
2022-08-12T02:19:37.311Z,14.19
2022-08-12T02:23:40.505Z,14.12
2022-08-12T02:27:54.105Z,14.01
2022-08-12T02:31:57.298Z,13.98
2022-08-12T02:36:02.497Z,14.01
2022-08-12T02:40:05.419Z,14.01
2022-08-12T02:44:10.680Z,13.97
2022-08-12T02:48:17.561Z,13.94
2022-08-12T02:52:20.815Z,13.79
2022-08-12T02:56:22.969Z,13.73
2022-08-12T03:00:26.159Z,13.66
2022-08-12T03:04:43.470Z,13.64
2022-08-12T03:08:53.739Z,13.64
2022-08-12T03:12:58.624Z,13.63
2022-08-12T03:17:30.207Z,13.65
2022-08-12T03:21:57.958Z,13.57
2022-08-12T03:25:58.958Z,13.51
2022-08-12T03:30:00.826Z,13.51
2022-08-12T03:34:07.888Z,13.44
2022-08-12T03:38:12.445Z,13.44
2022-08-12T03:42:33.046Z,13.43
2022-08-12T03:46:57.514Z,13.36
2022-08-12T03:51:18.449Z,13.36
2022-08-12T03:55:38.745Z,13.29
2022-08-12T03:59:58.937Z,13.18
2022-08-12T04:04:02.020Z,13.13
2022-08-12T04:08:04.108Z,13.11
2022-08-12T04:12:26.044Z,13.01
2022-08-12T04:16:28.720Z,12.92
2022-08-12T04:20:30.329Z,12.96
2022-08-12T04:24:34.860Z,12.82
2022-08-12T04:28:36.715Z,12.83
2022-08-12T04:32:43.707Z,12.80
2022-08-12T04:36:46.037Z,12.83
2022-08-12T04:40:48.550Z,12.89
2022-08-12T04:44:49.880Z,12.97
2022-08-12T04:48:52.576Z,13.04
2022-08-12T04:52:55.481Z,13.10
2022-08-12T04:57:03.563Z,13.14
2022-08-12T05:01:07.761Z,13.25
2022-08-12T05:05:18.745Z,13.37
2022-08-12T05:09:20.335Z,13.47
2022-08-12T05:13:27.306Z,13.63
2022-08-12T05:17:29.015Z,13.83
2022-08-12T05:21:32.958Z,13.98
2022-08-12T05:25:35.050Z,14.20
2022-08-12T05:30:06.576Z,14.41
2022-08-12T05:33:58.130Z,14.62
2022-08-12T05:38:18.345Z,14.91
2022-08-12T05:42:19.763Z,15.91
2022-08-12T05:46:37.409Z,16.85
2022-08-12T05:50:39.133Z,17.54
2022-08-12T05:54:57.112Z,17.91
2022-08-12T05:59:01.577Z,18.16
2022-08-12T06:03:04.838Z,18.40
2022-08-12T06:07:59.174Z,18.81
2022-08-12T06:11:30.292Z,19.40
2022-08-12T06:15:33.201Z,20.22
2022-08-12T06:20:27.548Z,21.13
2022-08-12T06:23:57.438Z,21.97
2022-08-12T06:28:07.206Z,22.61
2022-08-12T06:32:09.969Z,23.10
2022-08-12T06:36:14.103Z,23.45
2022-08-12T06:40:41.366Z,23.87
2022-08-12T06:44:42.838Z,24.22
2022-08-12T06:48:44.310Z,24.53
2022-08-12T06:52:46.141Z,24.81
2022-08-12T06:57:03.680Z,25.11
2022-08-12T07:01:07.364Z,25.34
2022-08-12T07:05:09.374Z,25.56
2022-08-12T07:09:14.532Z,25.81
2022-08-12T07:14:11.199Z,25.95
2022-08-12T07:18:00.855Z,26.22
2022-08-12T07:22:06.340Z,26.40
2022-08-12T07:26:09.735Z,26.67
2022-08-12T07:30:14.414Z,26.83
2022-08-12T07:34:17.253Z,27.03
2022-08-12T07:38:33.465Z,27.22
2022-08-12T07:42:35.315Z,27.43
2022-08-12T07:46:40.690Z,27.60
2022-08-12T07:50:42.213Z,27.69
2022-08-12T07:54:44.538Z,27.90
2022-08-12T07:58:47.204Z,28.08
2022-08-12T08:02:49.511Z,28.23
2022-08-12T08:06:51.265Z,28.47
2022-08-12T08:11:15.383Z,28.60
2022-08-12T08:15:17.208Z,28.77
2022-08-12T08:19:25.519Z,28.96
2022-08-12T08:23:56.274Z,29.15
2022-08-12T08:28:05.940Z,29.38
2022-08-12T08:32:07.606Z,29.52
2022-08-12T08:36:16.351Z,29.71
2022-08-12T08:40:43.696Z,29.84
2022-08-12T08:44:45.460Z,30.07
2022-08-12T08:48:46.903Z,30.26
2022-08-12T08:52:49.057Z,30.27
2022-08-12T08:56:51.197Z,30.29
2022-08-12T09:00:52.865Z,30.33
2022-08-12T09:05:13.457Z,30.41
2022-08-12T09:09:17.905Z,30.42
2022-08-12T09:14:10.554Z,30.53
2022-08-12T09:17:57.474Z,30.47
2022-08-12T09:22:00.761Z,30.45
2022-08-12T09:30:41.338Z,30.68
2022-08-12T09:34:50.632Z,30.75
2022-08-12T09:38:59.026Z,30.72
2022-08-12T09:43:21.290Z,30.72
2022-08-12T09:47:29.668Z,30.73
2022-08-12T09:51:37.475Z,30.82
2022-08-12T09:56:33.365Z,30.90
2022-08-12T10:00:17.454Z,31.13
2022-08-12T10:04:20.749Z,31.20
2022-08-12T10:08:24.458Z,31.24
2022-08-12T10:13:06.982Z,31.15
2022-08-12T10:17:08.596Z,31.15
2022-08-12T10:21:16.373Z,31.27
2022-08-12T10:26:35.588Z,31.39
2022-08-12T10:30:37.148Z,31.42
2022-08-12T10:34:26.680Z,31.48
2022-08-12T10:38:38.952Z,31.60
2022-08-12T10:43:01.731Z,31.65
2022-08-12T10:47:26.616Z,31.57
2022-08-12T10:51:51.700Z,31.57
2022-08-12T10:55:56.430Z,31.65
2022-08-12T11:00:31.353Z,31.68
2022-08-12T11:04:39.555Z,31.73
2022-08-12T11:08:46.432Z,31.87
2022-08-12T11:12:59.120Z,32.00
2022-08-12T11:17:33.944Z,32.10
2022-08-12T11:21:51.209Z,32.11
2022-08-12T11:25:57.648Z,32.27
2022-08-12T11:30:05.702Z,32.48
2022-08-12T11:34:51.715Z,32.36
2022-08-12T11:38:29.612Z,32.43
2022-08-12T11:42:32.565Z,32.46
2022-08-12T11:46:38.197Z,32.45
2022-08-12T11:50:40.638Z,32.61
2022-08-12T11:54:51.151Z,32.74
2022-08-12T12:01:58.957Z,32.72
2022-08-12T12:03:17.317Z,32.67
2022-08-12T12:07:18.945Z,32.86
2022-08-12T12:11:22.059Z,32.81
2022-08-12T12:15:25.280Z,32.73
2022-08-12T12:19:46.255Z,32.73
2022-08-12T12:23:48.112Z,32.79
2022-08-12T12:28:05.195Z,32.79
2022-08-12T12:32:11.820Z,32.68
2022-08-12T12:36:20.574Z,32.66
2022-08-12T12:40:29.822Z,32.76
2022-08-12T12:44:42.164Z,32.74
2022-08-12T12:48:53.164Z,32.87
2022-08-12T12:52:54.908Z,32.94
2022-08-12T12:56:58.513Z,33.00
2022-08-12T13:01:04.699Z,32.95
2022-08-12T13:05:28.275Z,32.93
2022-08-12T13:09:36.042Z,32.87
2022-08-12T13:14:07.500Z,33.00
2022-08-12T13:18:04.984Z,33.12
2022-08-12T13:22:19.366Z,33.09
2022-08-12T13:26:22.070Z,33.21
2022-08-12T13:30:26.056Z,33.29
2022-08-12T13:34:31.812Z,33.30
2022-08-12T13:38:44.278Z,33.40
2022-08-12T13:43:01.976Z,33.42
2022-08-12T13:47:06.724Z,33.42
2022-08-12T13:51:24.435Z,33.39
2022-08-12T13:55:30.972Z,33.41
2022-08-12T13:59:48.078Z,33.38
2022-08-12T14:03:51.928Z,33.40
2022-08-12T14:08:01.692Z,33.39
2022-08-12T14:12:05.600Z,33.44
2022-08-12T14:16:14.253Z,33.48
2022-08-12T14:20:16.061Z,33.39
2022-08-12T14:24:17.517Z,33.41
2022-08-12T14:28:23.250Z,33.42
2022-08-12T14:32:25.450Z,33.37
2022-08-12T14:36:27.289Z,33.36
2022-08-12T14:40:29.928Z,33.27
2022-08-12T14:44:57.267Z,33.23
2022-08-12T14:48:54.410Z,33.15
2022-08-12T14:57:20.308Z,33.12
2022-08-12T15:01:41.715Z,33.14
2022-08-12T15:06:05.296Z,33.18
2022-08-12T15:10:06.117Z,33.28
2022-08-12T15:14:09.241Z,33.30
2022-08-12T15:18:22.678Z,33.29
2022-08-12T15:22:39.581Z,33.22
2022-08-12T15:26:46.635Z,33.27
2022-08-12T15:30:52.665Z,33.38
2022-08-12T15:34:54.903Z,33.34
2022-08-12T15:38:57.305Z,33.39
2022-08-12T15:43:00.662Z,33.41
2022-08-12T15:47:03.884Z,33.38
2022-08-12T15:51:06.151Z,33.41
2022-08-12T15:55:14.058Z,33.42
2022-08-12T15:59:18.345Z,33.47
2022-08-12T16:03:46.141Z,33.50
2022-08-12T16:07:57.741Z,33.51
2022-08-12T16:12:03.115Z,33.50
2022-08-12T16:16:20.943Z,33.45
2022-08-12T16:20:32.991Z,33.30
2022-08-12T16:24:42.054Z,33.13
2022-08-12T16:28:47.368Z,32.73
2022-08-12T16:32:53.922Z,32.17
2022-08-12T16:37:00.033Z,31.72
2022-08-12T16:41:01.637Z,31.33
2022-08-12T16:45:03.402Z,30.94
2022-08-12T16:49:09.208Z,30.66
2022-08-12T16:53:18.501Z,30.40
2022-08-12T16:57:34.950Z,30.16
2022-08-12T17:01:37.520Z,30.00
2022-08-12T17:05:40.560Z,29.85
2022-08-12T17:09:50.629Z,29.69
2022-08-12T17:13:54.433Z,29.53
2022-08-12T17:18:39.409Z,29.43
2022-08-12T17:22:21.670Z,29.27
2022-08-12T17:26:28.229Z,29.13
2022-08-12T17:30:35.344Z,29.03
2022-08-12T17:34:56.383Z,28.96
2022-08-12T17:38:57.994Z,28.87
2022-08-12T17:43:57.347Z,28.77
2022-08-12T17:47:35.937Z,28.63
2022-08-12T17:51:50.422Z,28.52
2022-08-12T17:55:52.598Z,28.37
2022-08-12T17:59:55.412Z,28.33
2022-08-12T18:04:21.470Z,28.29
2022-08-12T18:08:22.042Z,28.19
2022-08-12T18:12:42.703Z,28.10
2022-08-12T18:16:53.507Z,27.97
2022-08-12T18:20:57.581Z,27.85
2022-08-12T18:25:02.662Z,27.75
2022-08-12T18:29:06.561Z,27.62
2022-08-12T18:33:11.925Z,27.45
2022-08-12T18:37:26.663Z,27.29
2022-08-12T18:41:35.991Z,27.13
2022-08-12T18:45:47.302Z,26.94
2022-08-12T18:49:58.867Z,26.75
2022-08-12T18:54:06.597Z,26.58
2022-08-12T18:58:13.949Z,26.36
2022-08-12T19:02:25.254Z,26.05
2022-08-12T19:06:35.657Z,25.73
2022-08-12T19:10:42.904Z,25.37
2022-08-12T19:15:04.175Z,25.03
2022-08-12T19:19:09.773Z,24.70
2022-08-12T19:23:16.612Z,24.35
2022-08-12T19:27:23.321Z,24.05
2022-08-12T19:31:58.856Z,23.85
2022-08-12T19:36:07.647Z,23.51
2022-08-12T19:40:32.495Z,23.24
2022-08-12T19:44:37.729Z,22.97
2022-08-12T19:48:40.974Z,22.79
2022-08-12T19:52:44.810Z,22.61
2022-08-12T19:56:50.517Z,22.45
2022-08-12T20:00:54.976Z,22.31
2022-08-12T20:06:06.241Z,22.14
2022-08-12T20:09:19.715Z,21.96
2022-08-12T20:13:27.215Z,21.80
2022-08-12T20:17:51.276Z,21.65
2022-08-12T20:21:54.929Z,21.51
2022-08-12T20:26:01.960Z,21.42
2022-08-12T20:30:11.444Z,21.29
2022-08-12T20:34:16.797Z,21.17
2022-08-12T20:38:26.896Z,21.07
2022-08-12T20:42:32.123Z,20.97
2022-08-12T20:46:33.903Z,20.89
2022-08-12T20:50:36.493Z,20.78
2022-08-12T20:54:40.486Z,20.70
2022-08-12T20:58:41.887Z,20.62
2022-08-12T21:02:50.214Z,20.51
2022-08-12T21:07:04.601Z,20.47
2022-08-12T21:11:11.510Z,20.35
2022-08-12T21:15:18.167Z,20.26
2022-08-12T21:19:53.007Z,20.19
2022-08-12T21:23:48.972Z,20.10
2022-08-12T21:27:59.553Z,20.03
2022-08-12T21:32:39.761Z,19.95
2022-08-12T21:36:34.525Z,19.89
2022-08-12T21:40:37.520Z,19.81
2022-08-12T21:45:45.730Z,19.74
2022-08-12T21:49:54.119Z,19.67
2022-08-12T21:54:07.670Z,19.61
2022-08-12T21:58:10.714Z,19.52
2022-08-12T22:02:32.097Z,19.52
2022-08-12T22:06:43.854Z,19.49
2022-08-12T22:10:46.132Z,19.41
2022-08-12T22:14:48.736Z,19.36
2022-08-12T22:18:50.839Z,19.28
2022-08-12T22:22:56.391Z,19.23
2022-08-12T22:27:18.178Z,19.21
2022-08-12T22:31:21.924Z,19.15
2022-08-12T22:35:55.846Z,19.09
2022-08-12T22:39:53.198Z,19.01
2022-08-12T22:44:14.558Z,18.94
2022-08-12T22:48:21.553Z,18.85
2022-08-12T22:52:27.759Z,18.77
2022-08-12T22:56:32.224Z,18.68
2022-08-12T23:00:35.396Z,18.60
2022-08-12T23:04:37.025Z,18.53
2022-08-12T23:08:38.458Z,18.52
2022-08-12T23:12:59.281Z,18.51
2022-08-12T23:17:07.417Z,18.52
2022-08-12T23:21:23.646Z,18.52
2022-08-12T23:25:54.191Z,18.51
2022-08-12T23:30:18.021Z,18.48
2022-08-12T23:34:13.769Z,18.44
2022-08-12T23:38:31.134Z,18.45
2022-08-12T23:42:33.598Z,18.48
2022-08-12T23:46:36.397Z,18.49
2022-08-12T23:50:40.759Z,18.50
2022-08-12T23:54:46.514Z,18.45
2022-08-12T23:59:00.418Z,18.42
